sensor_id;sensor_type;location;lat;lon;timestamp;P1;durP1;ratioP1;P2;durP2;ratioP2
462;SDS011;218;51.902;9.542;2022-12-26T00:01:39;11.20;;;10.10;;
462;SDS011;218;51.902;9.542;2022-12-26T00:04:07;11.33;;;10.23;;
462;SDS011;218;51.902;9.542;2022-12-26T00:06:36;10.40;;;9.40;;
462;SDS011;218;51.902;9.542;2022-12-26T00:09:04;9.20;;;8.40;;
462;SDS011;218;51.902;9.542;2022-12-26T00:11:32;11.00;;;9.90;;
462;SDS011;218;51.902;9.542;2022-12-26T00:14:00;8.77;;;7.67;;
462;SDS011;218;51.902;9.542;2022-12-26T00:16:28;10.40;;;9.30;;
462;SDS011;218;51.902;9.542;2022-12-26T00:18:55;10.00;;;9.17;;
462;SDS011;218;51.902;9.542;2022-12-26T00:21:22;9.70;;;8.70;;
462;SDS011;218;51.902;9.542;2022-12-26T00:23:53;9.67;;;8.87;;
462;SDS011;218;51.902;9.542;2022-12-26T00:26:21;11.23;;;10.13;;
462;SDS011;218;51.902;9.542;2022-12-26T00:28:48;10.10;;;9.17;;
462;SDS011;218;51.902;9.542;2022-12-26T00:31:16;10.10;;;9.20;;
462;SDS011;218;51.902;9.542;2022-12-26T00:33:44;9.77;;;8.87;;
462;SDS011;218;51.902;9.542;2022-12-26T00:36:11;10.93;;;8.77;;
462;SDS011;218;51.902;9.542;2022-12-26T00:38:39;10.90;;;9.73;;
462;SDS011;218;51.902;9.542;2022-12-26T00:41:09;12.33;;;11.20;;
462;SDS011;218;51.902;9.542;2022-12-26T00:43:36;9.50;;;8.50;;
462;SDS011;218;51.902;9.542;2022-12-26T00:46:04;9.23;;;8.40;;
462;SDS011;218;51.902;9.542;2022-12-26T00:48:31;9.20;;;8.30;;
462;SDS011;218;51.902;9.542;2022-12-26T00:50:58;9.50;;;8.80;;
462;SDS011;218;51.902;9.542;2022-12-26T00:53:26;10.70;;;8.97;;
462;SDS011;218;51.902;9.542;2022-12-26T00:55:53;9.10;;;8.33;;
462;SDS011;218;51.902;9.542;2022-12-26T00:58:22;10.77;;;9.67;;
462;SDS011;218;51.902;9.542;2022-12-26T01:00:49;9.10;;;8.40;;
462;SDS011;218;51.902;9.542;2022-12-26T01:03:16;9.30;;;8.40;;
462;SDS011;218;51.902;9.542;2022-12-26T01:05:44;9.77;;;8.60;;
462;SDS011;218;51.902;9.542;2022-12-26T01:08:11;8.37;;;7.50;;
462;SDS011;218;51.902;9.542;2022-12-26T01:10:39;10.10;;;9.20;;
462;SDS011;218;51.902;9.542;2022-12-26T01:13:06;9.60;;;8.70;;
462;SDS011;218;51.902;9.542;2022-12-26T01:15:35;9.50;;;8.70;;
462;SDS011;218;51.902;9.542;2022-12-26T01:18:02;9.50;;;8.60;;
462;SDS011;218;51.902;9.542;2022-12-26T01:20:30;9.53;;;8.00;;
462;SDS011;218;51.902;9.542;2022-12-26T01:22:57;7.63;;;7.03;;
462;SDS011;218;51.902;9.542;2022-12-26T01:25:24;8.23;;;7.53;;
462;SDS011;218;51.902;9.542;2022-12-26T01:27:51;8.30;;;7.60;;
462;SDS011;218;51.902;9.542;2022-12-26T01:30:18;7.93;;;7.33;;
462;SDS011;218;51.902;9.542;2022-12-26T01:32:47;8.97;;;8.17;;
462;SDS011;218;51.902;9.542;2022-12-26T01:35:14;8.43;;;7.73;;
462;SDS011;218;51.902;9.542;2022-12-26T01:37:41;7.77;;;7.07;;
462;SDS011;218;51.902;9.542;2022-12-26T01:40:10;7.83;;;7.13;;
462;SDS011;218;51.902;9.542;2022-12-26T01:42:38;7.83;;;7.00;;
462;SDS011;218;51.902;9.542;2022-12-26T01:45:08;7.20;;;6.60;;
462;SDS011;218;51.902;9.542;2022-12-26T01:47:45;7.87;;;7.27;;
462;SDS011;218;51.902;9.542;2022-12-26T01:50:16;8.53;;;7.77;;
462;SDS011;218;51.902;9.542;2022-12-26T01:52:45;7.63;;;7.03;;
462;SDS011;218;51.902;9.542;2022-12-26T01:55:13;9.27;;;8.47;;
462;SDS011;218;51.902;9.542;2022-12-26T01:57:42;8.03;;;7.37;;
462;SDS011;218;51.902;9.542;2022-12-26T02:00:10;8.10;;;7.40;;
462;SDS011;218;51.902;9.542;2022-12-26T02:02:38;7.47;;;6.87;;
462;SDS011;218;51.902;9.542;2022-12-26T02:05:20;8.63;;;7.70;;
462;SDS011;218;51.902;9.542;2022-12-26T02:08:00;6.97;;;6.37;;
462;SDS011;218;51.902;9.542;2022-12-26T02:10:30;6.70;;;6.20;;
462;SDS011;218;51.902;9.542;2022-12-26T02:12:59;6.63;;;5.97;;
462;SDS011;218;51.902;9.542;2022-12-26T02:15:26;6.93;;;6.43;;
462;SDS011;218;51.902;9.542;2022-12-26T02:17:54;7.10;;;6.60;;
462;SDS011;218;51.902;9.542;2022-12-26T02:20:23;6.83;;;6.30;;
462;SDS011;218;51.902;9.542;2022-12-26T02:23:07;6.73;;;6.00;;
462;SDS011;218;51.902;9.542;2022-12-26T02:28:48;6.50;;;6.00;;
462;SDS011;218;51.902;9.542;2022-12-26T02:31:49;6.00;;;5.50;;
462;SDS011;218;51.902;9.542;2022-12-26T02:34:18;6.80;;;6.20;;
462;SDS011;218;51.902;9.542;2022-12-26T02:36:55;6.80;;;6.30;;
462;SDS011;218;51.902;9.542;2022-12-26T02:39:37;7.97;;;6.80;;
462;SDS011;218;51.902;9.542;2022-12-26T02:42:09;7.23;;;6.43;;
462;SDS011;218;51.902;9.542;2022-12-26T02:44:46;6.47;;;5.87;;
462;SDS011;218;51.902;9.542;2022-12-26T02:47:34;6.77;;;6.20;;
462;SDS011;218;51.902;9.542;2022-12-26T02:50:07;7.90;;;7.23;;
462;SDS011;218;51.902;9.542;2022-12-26T02:52:56;8.70;;;7.60;;
462;SDS011;218;51.902;9.542;2022-12-26T02:55:43;7.53;;;6.93;;
462;SDS011;218;51.902;9.542;2022-12-26T02:58:33;7.13;;;6.53;;
462;SDS011;218;51.902;9.542;2022-12-26T03:01:25;8.50;;;7.70;;
462;SDS011;218;51.902;9.542;2022-12-26T03:04:13;6.60;;;6.20;;
462;SDS011;218;51.902;9.542;2022-12-26T03:07:00;5.63;;;5.23;;
462;SDS011;218;51.902;9.542;2022-12-26T03:09:46;6.17;;;5.67;;
462;SDS011;218;51.902;9.542;2022-12-26T03:12:35;6.73;;;6.20;;
462;SDS011;218;51.902;9.542;2022-12-26T03:15:20;7.27;;;5.10;;
462;SDS011;218;51.902;9.542;2022-12-26T03:17:48;4.73;;;4.43;;
462;SDS011;218;51.902;9.542;2022-12-26T03:20:17;5.60;;;5.10;;
462;SDS011;218;51.902;9.542;2022-12-26T03:22:46;4.03;;;3.70;;
462;SDS011;218;51.902;9.542;2022-12-26T03:25:15;3.60;;;3.40;;
462;SDS011;218;51.902;9.542;2022-12-26T03:28:05;2.83;;;2.73;;
462;SDS011;218;51.902;9.542;2022-12-26T03:30:33;2.73;;;2.63;;
462;SDS011;218;51.902;9.542;2022-12-26T03:33:15;2.80;;;2.70;;
462;SDS011;218;51.902;9.542;2022-12-26T03:36:02;2.90;;;2.80;;
462;SDS011;218;51.902;9.542;2022-12-26T03:38:31;3.10;;;2.90;;
462;SDS011;218;51.902;9.542;2022-12-26T03:41:01;2.47;;;2.37;;
462;SDS011;218;51.902;9.542;2022-12-26T03:43:53;2.43;;;2.33;;
462;SDS011;218;51.902;9.542;2022-12-26T03:47:06;2.10;;;2.00;;
462;SDS011;218;51.902;9.542;2022-12-26T03:49:58;2.60;;;2.40;;
462;SDS011;218;51.902;9.542;2022-12-26T03:52:51;1.90;;;1.80;;
462;SDS011;218;51.902;9.542;2022-12-26T03:55:40;2.00;;;1.90;;
462;SDS011;218;51.902;9.542;2022-12-26T03:58:28;1.90;;;1.77;;
462;SDS011;218;51.902;9.542;2022-12-26T04:01:18;2.70;;;2.50;;
462;SDS011;218;51.902;9.542;2022-12-26T04:04:05;2.77;;;2.57;;
462;SDS011;218;51.902;9.542;2022-12-26T04:06:51;2.20;;;2.10;;
462;SDS011;218;51.902;9.542;2022-12-26T04:09:40;3.70;;;2.27;;
462;SDS011;218;51.902;9.542;2022-12-26T04:12:26;2.83;;;2.63;;
462;SDS011;218;51.902;9.542;2022-12-26T04:15:16;2.50;;;2.40;;
462;SDS011;218;51.902;9.542;2022-12-26T04:18:07;2.83;;;2.73;;
462;SDS011;218;51.902;9.542;2022-12-26T04:20:55;2.97;;;2.87;;
462;SDS011;218;51.902;9.542;2022-12-26T04:23:27;2.83;;;2.70;;
462;SDS011;218;51.902;9.542;2022-12-26T04:26:17;3.20;;;3.10;;
462;SDS011;218;51.902;9.542;2022-12-26T04:29:04;3.00;;;2.90;;
462;SDS011;218;51.902;9.542;2022-12-26T04:31:50;3.67;;;3.47;;
462;SDS011;218;51.902;9.542;2022-12-26T04:34:38;3.60;;;3.40;;
462;SDS011;218;51.902;9.542;2022-12-26T04:37:25;3.50;;;3.30;;
462;SDS011;218;51.902;9.542;2022-12-26T04:40:14;3.40;;;3.20;;
462;SDS011;218;51.902;9.542;2022-12-26T04:43:02;3.27;;;3.07;;
462;SDS011;218;51.902;9.542;2022-12-26T04:45:47;3.30;;;3.10;;
462;SDS011;218;51.902;9.542;2022-12-26T04:48:15;2.90;;;2.80;;
462;SDS011;218;51.902;9.542;2022-12-26T04:51:00;2.90;;;2.73;;
462;SDS011;218;51.902;9.542;2022-12-26T04:53:27;2.97;;;2.77;;
462;SDS011;218;51.902;9.542;2022-12-26T04:55:54;2.97;;;2.70;;
462;SDS011;218;51.902;9.542;2022-12-26T04:58:23;3.07;;;2.87;;
462;SDS011;218;51.902;9.542;2022-12-26T05:00:51;3.03;;;2.83;;
462;SDS011;218;51.902;9.542;2022-12-26T05:03:39;3.13;;;2.90;;
462;SDS011;218;51.902;9.542;2022-12-26T05:06:24;3.50;;;3.30;;
462;SDS011;218;51.902;9.542;2022-12-26T05:09:09;3.20;;;3.00;;
462;SDS011;218;51.902;9.542;2022-12-26T05:11:54;3.33;;;3.13;;
462;SDS011;218;51.902;9.542;2022-12-26T05:14:23;2.70;;;2.60;;
462;SDS011;218;51.902;9.542;2022-12-26T05:16:50;3.20;;;3.00;;
462;SDS011;218;51.902;9.542;2022-12-26T05:19:35;3.00;;;2.80;;
462;SDS011;218;51.902;9.542;2022-12-26T05:22:20;3.03;;;2.77;;
462;SDS011;218;51.902;9.542;2022-12-26T05:25:07;3.00;;;2.80;;
462;SDS011;218;51.902;9.542;2022-12-26T05:27:56;2.67;;;2.57;;
462;SDS011;218;51.902;9.542;2022-12-26T05:30:42;3.50;;;3.30;;
462;SDS011;218;51.902;9.542;2022-12-26T05:33:09;2.90;;;2.80;;
462;SDS011;218;51.902;9.542;2022-12-26T05:35:54;2.80;;;2.70;;
462;SDS011;218;51.902;9.542;2022-12-26T05:38:23;2.80;;;2.60;;
462;SDS011;218;51.902;9.542;2022-12-26T05:40:50;3.27;;;3.00;;
462;SDS011;218;51.902;9.542;2022-12-26T05:43:17;2.63;;;2.43;;
462;SDS011;218;51.902;9.542;2022-12-26T05:45:46;2.60;;;2.50;;
462;SDS011;218;51.902;9.542;2022-12-26T05:48:13;3.10;;;2.90;;
462;SDS011;218;51.902;9.542;2022-12-26T05:50:40;3.07;;;2.87;;
462;SDS011;218;51.902;9.542;2022-12-26T05:53:07;3.50;;;3.30;;
462;SDS011;218;51.902;9.542;2022-12-26T05:55:35;2.67;;;2.57;;
462;SDS011;218;51.902;9.542;2022-12-26T05:58:02;2.83;;;2.63;;
462;SDS011;218;51.902;9.542;2022-12-26T06:00:29;2.80;;;2.60;;
462;SDS011;218;51.902;9.542;2022-12-26T06:02:58;2.80;;;2.60;;
462;SDS011;218;51.902;9.542;2022-12-26T06:05:26;3.17;;;2.97;;
462;SDS011;218;51.902;9.542;2022-12-26T06:07:53;3.23;;;2.57;;
462;SDS011;218;51.902;9.542;2022-12-26T06:10:20;3.30;;;3.10;;
462;SDS011;218;51.902;9.542;2022-12-26T06:12:50;3.60;;;3.40;;
462;SDS011;218;51.902;9.542;2022-12-26T06:15:17;3.43;;;3.13;;
462;SDS011;218;51.902;9.542;2022-12-26T06:17:44;2.80;;;2.60;;
462;SDS011;218;51.902;9.542;2022-12-26T06:20:13;3.50;;;3.30;;
462;SDS011;218;51.902;9.542;2022-12-26T06:22:40;3.20;;;3.00;;
462;SDS011;218;51.902;9.542;2022-12-26T06:25:08;3.20;;;3.00;;
462;SDS011;218;51.902;9.542;2022-12-26T06:27:35;3.90;;;3.60;;
462;SDS011;218;51.902;9.542;2022-12-26T06:30:02;3.83;;;3.63;;
462;SDS011;218;51.902;9.542;2022-12-26T06:32:30;3.93;;;3.63;;
462;SDS011;218;51.902;9.542;2022-12-26T06:34:57;4.67;;;4.37;;
462;SDS011;218;51.902;9.542;2022-12-26T06:37:25;4.67;;;4.37;;
462;SDS011;218;51.902;9.542;2022-12-26T06:39:52;4.20;;;3.90;;
462;SDS011;218;51.902;9.542;2022-12-26T06:42:20;5.83;;;4.40;;
462;SDS011;218;51.902;9.542;2022-12-26T06:44:46;5.90;;;5.30;;
462;SDS011;218;51.902;9.542;2022-12-26T06:47:14;5.70;;;5.30;;
462;SDS011;218;51.902;9.542;2022-12-26T06:49:41;6.13;;;5.63;;
462;SDS011;218;51.902;9.542;2022-12-26T06:52:08;7.30;;;6.70;;
462;SDS011;218;51.902;9.542;2022-12-26T06:54:39;9.30;;;8.50;;
462;SDS011;218;51.902;9.542;2022-12-26T06:57:06;9.77;;;8.97;;
462;SDS011;218;51.902;9.542;2022-12-26T06:59:33;12.17;;;11.07;;
462;SDS011;218;51.902;9.542;2022-12-26T07:02:00;12.90;;;11.80;;
462;SDS011;218;51.902;9.542;2022-12-26T07:04:28;14.10;;;12.87;;
462;SDS011;218;51.902;9.542;2022-12-26T07:06:55;13.40;;;12.20;;
462;SDS011;218;51.902;9.542;2022-12-26T07:09:22;13.70;;;12.60;;
462;SDS011;218;51.902;9.542;2022-12-26T07:11:50;12.77;;;11.67;;
462;SDS011;218;51.902;9.542;2022-12-26T07:14:19;12.23;;;11.23;;
462;SDS011;218;51.902;9.542;2022-12-26T07:16:47;11.87;;;10.87;;
462;SDS011;218;51.902;9.542;2022-12-26T07:19:14;12.13;;;11.10;;
462;SDS011;218;51.902;9.542;2022-12-26T07:21:41;12.77;;;11.77;;
462;SDS011;218;51.902;9.542;2022-12-26T07:24:12;11.93;;;11.07;;
462;SDS011;218;51.902;9.542;2022-12-26T07:26:39;11.50;;;10.50;;
462;SDS011;218;51.902;9.542;2022-12-26T07:29:09;11.10;;;10.17;;
462;SDS011;218;51.902;9.542;2022-12-26T07:31:37;12.03;;;10.93;;
462;SDS011;218;51.902;9.542;2022-12-26T07:34:04;10.23;;;9.33;;
462;SDS011;218;51.902;9.542;2022-12-26T07:36:31;12.37;;;11.20;;
462;SDS011;218;51.902;9.542;2022-12-26T07:38:58;10.60;;;9.60;;
462;SDS011;218;51.902;9.542;2022-12-26T07:41:25;10.97;;;9.97;;
462;SDS011;218;51.902;9.542;2022-12-26T07:44:12;10.90;;;9.80;;
462;SDS011;218;51.902;9.542;2022-12-26T07:46:39;12.50;;;11.20;;
462;SDS011;218;51.902;9.542;2022-12-26T07:49:06;12.00;;;11.00;;
462;SDS011;218;51.902;9.542;2022-12-26T07:51:33;13.20;;;12.03;;
462;SDS011;218;51.902;9.542;2022-12-26T07:54:00;12.27;;;11.00;;
462;SDS011;218;51.902;9.542;2022-12-26T07:56:28;13.57;;;12.37;;
462;SDS011;218;51.902;9.542;2022-12-26T07:58:55;11.93;;;10.73;;
462;SDS011;218;51.902;9.542;2022-12-26T08:01:24;11.53;;;10.37;;
462;SDS011;218;51.902;9.542;2022-12-26T08:03:51;13.50;;;12.20;;
462;SDS011;218;51.902;9.542;2022-12-26T08:06:18;12.20;;;11.00;;
462;SDS011;218;51.902;9.542;2022-12-26T08:08:45;12.33;;;10.47;;
462;SDS011;218;51.902;9.542;2022-12-26T08:11:13;11.10;;;9.90;;
462;SDS011;218;51.902;9.542;2022-12-26T08:13:41;10.90;;;9.90;;
462;SDS011;218;51.902;9.542;2022-12-26T08:16:10;10.50;;;9.60;;
462;SDS011;218;51.902;9.542;2022-12-26T08:18:39;10.37;;;9.37;;
462;SDS011;218;51.902;9.542;2022-12-26T08:21:06;9.10;;;8.30;;
462;SDS011;218;51.902;9.542;2022-12-26T08:23:33;8.90;;;8.10;;
462;SDS011;218;51.902;9.542;2022-12-26T08:26:03;10.50;;;9.40;;
462;SDS011;218;51.902;9.542;2022-12-26T08:28:30;8.40;;;7.70;;
462;SDS011;218;51.902;9.542;2022-12-26T08:30:57;8.53;;;7.73;;
462;SDS011;218;51.902;9.542;2022-12-26T08:33:24;8.80;;;7.93;;
462;SDS011;218;51.902;9.542;2022-12-26T08:35:52;8.80;;;8.00;;
462;SDS011;218;51.902;9.542;2022-12-26T08:38:20;7.93;;;7.30;;
462;SDS011;218;51.902;9.542;2022-12-26T08:40:52;8.00;;;7.33;;
462;SDS011;218;51.902;9.542;2022-12-26T08:43:20;7.40;;;6.80;;
462;SDS011;218;51.902;9.542;2022-12-26T08:45:55;7.83;;;7.13;;
462;SDS011;218;51.902;9.542;2022-12-26T08:48:22;7.70;;;7.10;;
462;SDS011;218;51.902;9.542;2022-12-26T08:50:56;8.90;;;8.00;;
462;SDS011;218;51.902;9.542;2022-12-26T08:53:23;7.87;;;7.17;;
462;SDS011;218;51.902;9.542;2022-12-26T08:55:51;7.97;;;7.30;;
462;SDS011;218;51.902;9.542;2022-12-26T08:58:18;7.43;;;6.93;;
462;SDS011;218;51.902;9.542;2022-12-26T09:00:46;7.40;;;6.83;;
462;SDS011;218;51.902;9.542;2022-12-26T09:03:13;7.63;;;7.03;;
462;SDS011;218;51.902;9.542;2022-12-26T09:05:41;8.90;;;8.20;;
462;SDS011;218;51.902;9.542;2022-12-26T09:08:09;7.80;;;7.20;;
462;SDS011;218;51.902;9.542;2022-12-26T09:10:36;6.50;;;5.93;;
462;SDS011;218;51.902;9.542;2022-12-26T09:13:04;7.17;;;6.60;;
462;SDS011;218;51.902;9.542;2022-12-26T09:15:31;6.80;;;6.30;;
462;SDS011;218;51.902;9.542;2022-12-26T09:17:58;6.47;;;5.87;;
462;SDS011;218;51.902;9.542;2022-12-26T09:20:25;7.80;;;7.07;;
462;SDS011;218;51.902;9.542;2022-12-26T09:22:52;6.67;;;6.17;;
462;SDS011;218;51.902;9.542;2022-12-26T09:25:22;6.80;;;6.20;;
462;SDS011;218;51.902;9.542;2022-12-26T09:27:50;6.90;;;6.20;;
462;SDS011;218;51.902;9.542;2022-12-26T09:30:19;6.30;;;5.80;;
462;SDS011;218;51.902;9.542;2022-12-26T09:32:46;5.40;;;5.10;;
462;SDS011;218;51.902;9.542;2022-12-26T09:35:13;6.30;;;5.90;;
462;SDS011;218;51.902;9.542;2022-12-26T09:37:41;6.43;;;5.97;;
462;SDS011;218;51.902;9.542;2022-12-26T09:40:10;5.80;;;5.40;;
462;SDS011;218;51.902;9.542;2022-12-26T09:42:46;6.43;;;5.83;;
462;SDS011;218;51.902;9.542;2022-12-26T09:45:16;5.10;;;4.70;;
462;SDS011;218;51.902;9.542;2022-12-26T09:47:46;4.40;;;4.00;;
462;SDS011;218;51.902;9.542;2022-12-26T09:50:19;5.27;;;4.73;;
462;SDS011;218;51.902;9.542;2022-12-26T09:52:50;4.30;;;4.00;;
462;SDS011;218;51.902;9.542;2022-12-26T09:55:24;5.07;;;4.70;;
462;SDS011;218;51.902;9.542;2022-12-26T09:57:55;4.63;;;4.33;;
462;SDS011;218;51.902;9.542;2022-12-26T10:00:24;4.17;;;3.93;;
462;SDS011;218;51.902;9.542;2022-12-26T10:02:53;5.40;;;4.70;;
462;SDS011;218;51.902;9.542;2022-12-26T10:05:21;5.33;;;4.30;;
462;SDS011;218;51.902;9.542;2022-12-26T10:07:50;4.60;;;4.30;;
462;SDS011;218;51.902;9.542;2022-12-26T10:10:20;4.50;;;4.10;;
462;SDS011;218;51.902;9.542;2022-12-26T10:12:52;4.03;;;3.73;;
462;SDS011;218;51.902;9.542;2022-12-26T10:15:35;4.47;;;4.03;;
462;SDS011;218;51.902;9.542;2022-12-26T10:18:17;3.90;;;3.70;;
462;SDS011;218;51.902;9.542;2022-12-26T10:20:52;4.27;;;4.03;;
462;SDS011;218;51.902;9.542;2022-12-26T10:23:23;4.60;;;4.20;;
462;SDS011;218;51.902;9.542;2022-12-26T10:25:59;4.07;;;3.83;;
462;SDS011;218;51.902;9.542;2022-12-26T10:28:31;4.77;;;4.23;;
462;SDS011;218;51.902;9.542;2022-12-26T10:31:03;4.67;;;4.03;;
462;SDS011;218;51.902;9.542;2022-12-26T10:33:35;3.27;;;3.07;;
462;SDS011;218;51.902;9.542;2022-12-26T10:36:04;3.87;;;2.80;;
462;SDS011;218;51.902;9.542;2022-12-26T10:38:33;3.57;;;3.37;;
462;SDS011;218;51.902;9.542;2022-12-26T10:41:02;7.33;;;3.30;;
462;SDS011;218;51.902;9.542;2022-12-26T10:43:31;2.83;;;2.73;;
462;SDS011;218;51.902;9.542;2022-12-26T10:46:06;3.07;;;2.80;;
462;SDS011;218;51.902;9.542;2022-12-26T10:48:38;3.33;;;3.07;;
462;SDS011;218;51.902;9.542;2022-12-26T10:51:06;3.63;;;2.87;;
462;SDS011;218;51.902;9.542;2022-12-26T10:53:34;2.90;;;2.70;;
462;SDS011;218;51.902;9.542;2022-12-26T10:56:02;4.23;;;3.00;;
462;SDS011;218;51.902;9.542;2022-12-26T10:58:29;2.43;;;2.17;;
462;SDS011;218;51.902;9.542;2022-12-26T11:00:58;2.97;;;2.77;;
462;SDS011;218;51.902;9.542;2022-12-26T11:03:58;2.70;;;2.50;;
462;SDS011;218;51.902;9.542;2022-12-26T11:06:27;3.70;;;3.50;;
462;SDS011;218;51.902;9.542;2022-12-26T11:08:57;2.73;;;2.53;;
462;SDS011;218;51.902;9.542;2022-12-26T11:11:25;3.27;;;3.07;;
462;SDS011;218;51.902;9.542;2022-12-26T11:14:14;5.13;;;2.50;;
462;SDS011;218;51.902;9.542;2022-12-26T11:16:52;3.10;;;2.80;;
462;SDS011;218;51.902;9.542;2022-12-26T11:19:27;2.73;;;2.53;;
462;SDS011;218;51.902;9.542;2022-12-26T11:21:55;3.40;;;3.10;;
462;SDS011;218;51.902;9.542;2022-12-26T11:24:39;3.30;;;3.00;;
462;SDS011;218;51.902;9.542;2022-12-26T11:27:15;3.37;;;3.17;;
462;SDS011;218;51.902;9.542;2022-12-26T11:29:43;3.37;;;3.17;;
462;SDS011;218;51.902;9.542;2022-12-26T11:32:16;3.83;;;3.53;;
462;SDS011;218;51.902;9.542;2022-12-26T11:34:45;6.70;;;3.47;;
462;SDS011;218;51.902;9.542;2022-12-26T11:37:18;3.90;;;3.60;;
462;SDS011;218;51.902;9.542;2022-12-26T11:39:49;4.30;;;3.50;;
462;SDS011;218;51.902;9.542;2022-12-26T11:42:17;3.47;;;3.17;;
462;SDS011;218;51.902;9.542;2022-12-26T11:44:46;7.60;;;3.47;;
462;SDS011;218;51.902;9.542;2022-12-26T11:47:18;3.40;;;3.20;;
462;SDS011;218;51.902;9.542;2022-12-26T11:49:48;3.50;;;3.20;;
462;SDS011;218;51.902;9.542;2022-12-26T11:52:32;5.53;;;2.80;;
462;SDS011;218;51.902;9.542;2022-12-26T11:55:04;5.70;;;2.80;;
462;SDS011;218;51.902;9.542;2022-12-26T11:57:54;4.53;;;3.73;;
462;SDS011;218;51.902;9.542;2022-12-26T12:00:21;4.80;;;2.80;;
462;SDS011;218;51.902;9.542;2022-12-26T12:02:51;2.60;;;2.50;;
462;SDS011;218;51.902;9.542;2022-12-26T12:05:24;3.37;;;3.00;;
462;SDS011;218;51.902;9.542;2022-12-26T12:08:06;4.50;;;3.00;;
462;SDS011;218;51.902;9.542;2022-12-26T12:13:38;3.73;;;2.70;;
462;SDS011;218;51.902;9.542;2022-12-26T12:16:23;2.53;;;2.37;;
462;SDS011;218;51.902;9.542;2022-12-26T12:19:03;2.30;;;2.20;;
462;SDS011;218;51.902;9.542;2022-12-26T12:21:42;2.60;;;2.40;;
462;SDS011;218;51.902;9.542;2022-12-26T12:24:33;3.47;;;2.50;;
462;SDS011;218;51.902;9.542;2022-12-26T12:27:04;2.90;;;2.73;;
462;SDS011;218;51.902;9.542;2022-12-26T12:29:44;2.10;;;2.00;;
462;SDS011;218;51.902;9.542;2022-12-26T12:32:14;2.40;;;2.20;;
462;SDS011;218;51.902;9.542;2022-12-26T12:34:49;2.30;;;2.10;;
462;SDS011;218;51.902;9.542;2022-12-26T12:37:20;3.47;;;2.13;;
462;SDS011;218;51.902;9.542;2022-12-26T12:39:59;3.50;;;2.37;;
462;SDS011;218;51.902;9.542;2022-12-26T12:42:34;3.03;;;2.83;;
462;SDS011;218;51.902;9.542;2022-12-26T12:45:15;3.20;;;2.50;;
462;SDS011;218;51.902;9.542;2022-12-26T12:47:54;4.30;;;2.40;;
462;SDS011;218;51.902;9.542;2022-12-26T12:50:38;2.53;;;1.90;;
462;SDS011;218;51.902;9.542;2022-12-26T12:53:12;2.87;;;2.20;;
462;SDS011;218;51.902;9.542;2022-12-26T12:55:46;5.90;;;2.40;;
462;SDS011;218;51.902;9.542;2022-12-26T12:58:19;2.03;;;1.93;;
462;SDS011;218;51.902;9.542;2022-12-26T13:00:54;2.67;;;2.47;;
462;SDS011;218;51.902;9.542;2022-12-26T13:03:24;2.83;;;2.57;;
462;SDS011;218;51.902;9.542;2022-12-26T13:05:58;3.17;;;2.70;;
462;SDS011;218;51.902;9.542;2022-12-26T13:08:28;2.90;;;2.00;;
462;SDS011;218;51.902;9.542;2022-12-26T13:10:57;4.47;;;2.67;;
462;SDS011;218;51.902;9.542;2022-12-26T13:13:26;5.00;;;2.30;;
462;SDS011;218;51.902;9.542;2022-12-26T13:15:55;2.27;;;2.17;;
462;SDS011;218;51.902;9.542;2022-12-26T13:18:24;2.63;;;2.53;;
462;SDS011;218;51.902;9.542;2022-12-26T13:20:56;3.37;;;3.07;;
462;SDS011;218;51.902;9.542;2022-12-26T13:23:31;3.50;;;2.57;;
462;SDS011;218;51.902;9.542;2022-12-26T13:26:19;2.23;;;2.13;;
462;SDS011;218;51.902;9.542;2022-12-26T13:28:51;2.50;;;2.30;;
462;SDS011;218;51.902;9.542;2022-12-26T13:31:20;2.20;;;2.00;;
462;SDS011;218;51.902;9.542;2022-12-26T13:33:47;2.13;;;2.03;;
462;SDS011;218;51.902;9.542;2022-12-26T13:36:33;1.90;;;1.80;;
462;SDS011;218;51.902;9.542;2022-12-26T13:41:47;2.47;;;2.27;;
462;SDS011;218;51.902;9.542;2022-12-26T13:44:33;3.50;;;2.20;;
462;SDS011;218;51.902;9.542;2022-12-26T13:47:00;2.00;;;1.90;;
462;SDS011;218;51.902;9.542;2022-12-26T13:49:31;2.30;;;2.07;;
462;SDS011;218;51.902;9.542;2022-12-26T13:57:43;6.00;;;3.70;;
462;SDS011;218;51.902;9.542;2022-12-26T14:00:13;4.47;;;2.87;;
462;SDS011;218;51.902;9.542;2022-12-26T14:09:00;2.43;;;2.23;;
462;SDS011;218;51.902;9.542;2022-12-26T14:11:40;3.00;;;2.80;;
462;SDS011;218;51.902;9.542;2022-12-26T14:14:17;4.00;;;3.70;;
462;SDS011;218;51.902;9.542;2022-12-26T14:16:52;3.87;;;3.67;;
462;SDS011;218;51.902;9.542;2022-12-26T14:19:28;2.50;;;2.40;;
462;SDS011;218;51.902;9.542;2022-12-26T14:22:00;2.73;;;2.30;;
462;SDS011;218;51.902;9.542;2022-12-26T14:24:36;3.73;;;2.40;;
462;SDS011;218;51.902;9.542;2022-12-26T14:27:17;2.43;;;2.33;;
462;SDS011;218;51.902;9.542;2022-12-26T14:30:00;2.60;;;2.40;;
462;SDS011;218;51.902;9.542;2022-12-26T14:32:32;3.17;;;2.80;;
462;SDS011;218;51.902;9.542;2022-12-26T14:35:04;2.33;;;2.20;;
462;SDS011;218;51.902;9.542;2022-12-26T14:37:39;2.53;;;2.43;;
462;SDS011;218;51.902;9.542;2022-12-26T14:40:19;2.60;;;2.40;;
462;SDS011;218;51.902;9.542;2022-12-26T14:43:04;2.73;;;2.60;;
462;SDS011;218;51.902;9.542;2022-12-26T14:45:45;2.70;;;2.60;;
462;SDS011;218;51.902;9.542;2022-12-26T14:51:28;2.97;;;2.77;;
462;SDS011;218;51.902;9.542;2022-12-26T14:56:52;3.17;;;2.97;;
462;SDS011;218;51.902;9.542;2022-12-26T14:59:23;2.53;;;2.40;;
462;SDS011;218;51.902;9.542;2022-12-26T15:01:59;2.57;;;2.37;;
462;SDS011;218;51.902;9.542;2022-12-26T15:04:41;3.00;;;2.80;;
462;SDS011;218;51.902;9.542;2022-12-26T15:15:48;2.87;;;2.67;;
462;SDS011;218;51.902;9.542;2022-12-26T15:18:29;2.93;;;2.73;;
462;SDS011;218;51.902;9.542;2022-12-26T15:21:10;3.07;;;2.83;;
462;SDS011;218;51.902;9.542;2022-12-26T15:24:04;2.27;;;2.17;;
462;SDS011;218;51.902;9.542;2022-12-26T15:26:45;2.50;;;2.40;;
462;SDS011;218;51.902;9.542;2022-12-26T15:32:02;2.77;;;2.57;;
462;SDS011;218;51.902;9.542;2022-12-26T15:34:44;2.10;;;2.00;;
462;SDS011;218;51.902;9.542;2022-12-26T15:37:21;2.93;;;2.30;;
462;SDS011;218;51.902;9.542;2022-12-26T15:40:09;3.53;;;2.37;;
462;SDS011;218;51.902;9.542;2022-12-26T15:42:41;3.50;;;2.20;;
462;SDS011;218;51.902;9.542;2022-12-26T15:45:14;4.93;;;2.80;;
462;SDS011;218;51.902;9.542;2022-12-26T15:47:47;3.23;;;2.27;;
462;SDS011;218;51.902;9.542;2022-12-26T15:50:21;3.67;;;2.03;;
462;SDS011;218;51.902;9.542;2022-12-26T15:52:54;2.00;;;1.80;;
462;SDS011;218;51.902;9.542;2022-12-26T15:55:29;4.07;;;2.30;;
462;SDS011;218;51.902;9.542;2022-12-26T15:58:00;5.07;;;2.33;;
462;SDS011;218;51.902;9.542;2022-12-26T16:00:34;3.77;;;1.80;;
462;SDS011;218;51.902;9.542;2022-12-26T16:03:18;2.30;;;2.10;;
462;SDS011;218;51.902;9.542;2022-12-26T16:05:54;2.40;;;2.20;;
462;SDS011;218;51.902;9.542;2022-12-26T16:11:15;2.93;;;2.23;;
462;SDS011;218;51.902;9.542;2022-12-26T16:13:49;3.13;;;1.83;;
462;SDS011;218;51.902;9.542;2022-12-26T16:16:24;2.00;;;1.90;;
462;SDS011;218;51.902;9.542;2022-12-26T16:18:53;4.00;;;2.00;;
462;SDS011;218;51.902;9.542;2022-12-26T16:21:21;2.73;;;2.20;;
462;SDS011;218;51.902;9.542;2022-12-26T16:24:07;7.10;;;2.13;;
462;SDS011;218;51.902;9.542;2022-12-26T16:26:37;2.33;;;1.97;;
462;SDS011;218;51.902;9.542;2022-12-26T16:29:06;2.63;;;2.40;;
462;SDS011;218;51.902;9.542;2022-12-26T16:31:33;4.50;;;2.33;;
462;SDS011;218;51.902;9.542;2022-12-26T16:34:02;2.87;;;2.60;;
462;SDS011;218;51.902;9.542;2022-12-26T16:36:31;2.10;;;1.93;;
462;SDS011;218;51.902;9.542;2022-12-26T16:38:59;1.73;;;1.40;;
462;SDS011;218;51.902;9.542;2022-12-26T16:41:27;5.43;;;2.20;;
462;SDS011;218;51.902;9.542;2022-12-26T16:43:55;2.97;;;1.83;;
462;SDS011;218;51.902;9.542;2022-12-26T16:46:25;2.07;;;1.80;;
462;SDS011;218;51.902;9.542;2022-12-26T16:48:55;3.05;;;2.05;;
462;SDS011;218;51.902;9.542;2022-12-26T16:51:32;2.27;;;1.67;;
462;SDS011;218;51.902;9.542;2022-12-26T16:54:13;3.43;;;1.70;;
462;SDS011;218;51.902;9.542;2022-12-26T16:56:41;2.93;;;2.07;;
462;SDS011;218;51.902;9.542;2022-12-26T16:59:10;5.53;;;2.00;;
462;SDS011;218;51.902;9.542;2022-12-26T17:01:38;2.10;;;1.60;;